Merricourt, North Dakota
Current Conditions -  °F | °C
As of 5:56 AM on Thursday 27 Nov 2014 (Local Time) from KJMS Reporting Station
Clear Clear  
Wind Chill: -31°   Ceiling: Unl
Heat Index: -31°   Visibility: 10mi
Dew Point: -34°   Wind: 3mph
Humidity: 74%   Direction: 170°S
Pressure: 30.43"   Gusts: NA
Location:  46.2592°N, 98.7407°W
Report Text: KJMS 271156Z AUTO 17003KT 10SM CLR M31/M34 A3043 RMK AO2 SLP362 T13061339 11283 21333 58017
Loading
Personal Weather Stations






























Interactive Weather Map New forecast layout! Learn more

10-Day Weather Forecast

Advertisements
Track Severe Weather on mobile